GCLPGCGM

Guest
Details From GCLP - Gran Canaria
To GCGM - La Gomera
Flight Number -
Tags generated
Created
Modified
Stats Distance 97 nm / 180 km
Max Altitude 5,900 ft / 1,798 m
Waypoints 3
Social Downloads 3
Likes 0
Share VATSIM

Download

Looking for another format? Having issues loading an existing format? Contact us
Advertisement - Login to hide

Notes

Basic altitude profile: - Ascent Rate: 2500ft/min - Ascent Speed: 250kts - Cruise Altitude: 35000ft - Cruise Speed: 420kts - Descent Rate: 1500ft/min - Descent Speed: 250kts Options: - Use NATs: yes - Use PACOTS: yes - Use low airways: yes - Use high airways: yes

Route

GCLP TFS GCGM

ID Type Via Altitude Latitude Longitude Leg Dist Tot Dist Heading (true) Name
O GCLP APT - 0 ft / 0 m 27.93154˚ -15.38559˚ - 0 nm - Gran Canaria
TFS VOR - 5,900 ft / 1,798 m 28.00245˚ -16.68793˚ 69 nm 69 nm 274° / 273° TENERIFE SUR VOR-DME
O GCGM APT - 0 ft / 0 m 28.02963˚ -17.21460˚ 27 nm 97 nm 273° / 273° La Gomera

Altitude Profile

Advertisement - Login to hide

GCLP

Details ICAO GCLP (LPA)
Name Gran Canaria
Region Canary Islands
Timezone Atlantic/Canary (UTC+0.0)
Stats Elevation 77 ft / 23 m (AMSL)
Location 27.931544° -15.385592°
Runways 2
Magnetic Variation 4.685° W

METAR

GCLP 122000Z 02021KT 9999 FEW040 SCT070 19/10 Q1020 NOSIG

Decode

TAF

TAF GCLP 121400Z 1215/1315 01023KT 9999 SCT040 TX21/1215Z TN16/1306Z TEMPO 1215/1315 01025G35KT

Decode

Departure Runways

ID Width Length Bearing (true) Bearing (mag) Surface Threshold Offset Overrun Length
03L 148 ft / 45 m 10,203 ft / 3,110 m 21.33° 26.02° Asphalt 0 ft / 0 m 656 ft / 200 m
03R 148 ft / 45 m 10,200 ft / 3,109 m 21.32° 26.01° Asphalt 0 ft / 0 m 673 ft / 205 m
21L 148 ft / 45 m 10,200 ft / 3,109 m 201.33° 206.02° Asphalt 0 ft / 0 m 689 ft / 210 m
21R 148 ft / 45 m 10,203 ft / 3,110 m 201.33° 206.02° Asphalt 0 ft / 0 m 755 ft / 230 m

GCGM

Details ICAO GCGM (GMZ)
Name La Gomera
Region Canary Islands
Timezone Atlantic/Canary (UTC+0.0)
Stats Elevation 715 ft / 218 m (AMSL)
Location 28.029627° -17.214603°
Runways 1
Magnetic Variation 5.360° W

METAR

GCGM 122000Z AUTO 09003KT 020V190 9999 -SHRA BKN039/// OVC046/// ///TCU 18/10 Q1021 RMK R09/VRB01KT ARP/VRB01KT

Decode

TAF

TAF GCGM 121400Z 1215/1315 01015KT 9999 FEW040 TX21/1313Z TN17/1306Z TEMPO 1215/1315 VRB15G30KT

Decode

Destination Runways

ID Width Length Bearing (true) Bearing (mag) Surface Threshold Offset Overrun Length
09 98 ft / 30 m 4,914 ft / 1,498 m 81.17° 86.53° Asphalt 0 ft / 0 m 0 ft / 0 m
27 98 ft / 30 m 4,914 ft / 1,498 m 261.18° 266.54° Asphalt 0 ft / 0 m 0 ft / 0 m

Popular Alternatives